sensor_id;sensor_type;location;lat;lon;timestamp;temperature;humidity
14555;DHT22;7364;50.870;4.722;2023-04-07T00:01:02;9.60;99.90
14555;DHT22;7364;50.870;4.722;2023-04-07T00:03:29;9.60;99.90
14555;DHT22;7364;50.870;4.722;2023-04-07T00:05:58;9.50;99.90
14555;DHT22;7364;50.870;4.722;2023-04-07T00:08:25;9.60;99.90
14555;DHT22;7364;50.870;4.722;2023-04-07T00:10:53;9.60;99.90
14555;DHT22;7364;50.870;4.722;2023-04-07T00:13:20;9.60;99.90
14555;DHT22;7364;50.870;4.722;2023-04-07T00:15:47;9.60;99.90
14555;DHT22;7364;50.870;4.722;2023-04-07T00:18:15;9.50;99.90
14555;DHT22;7364;50.870;4.722;2023-04-07T00:20:42;9.60;99.90
14555;DHT22;7364;50.870;4.722;2023-04-07T00:23:11;9.60;99.90
14555;DHT22;7364;50.870;4.722;2023-04-07T00:25:39;9.70;99.90
14555;DHT22;7364;50.870;4.722;2023-04-07T00:28:06;9.60;99.90
14555;DHT22;7364;50.870;4.722;2023-04-07T00:30:34;9.60;99.90
14555;DHT22;7364;50.870;4.722;2023-04-07T00:33:01;9.70;99.90
14555;DHT22;7364;50.870;4.722;2023-04-07T00:35:28;9.70;99.90
14555;DHT22;7364;50.870;4.722;2023-04-07T00:37:56;9.80;99.90
14555;DHT22;7364;50.870;4.722;2023-04-07T00:40:24;9.90;99.90
14555;DHT22;7364;50.870;4.722;2023-04-07T00:42:52;10.10;99.90
14555;DHT22;7364;50.870;4.722;2023-04-07T00:45:19;10.00;99.90
14555;DHT22;7364;50.870;4.722;2023-04-07T00:47:46;9.90;99.90
14555;DHT22;7364;50.870;4.722;2023-04-07T00:50:13;9.80;99.90
14555;DHT22;7364;50.870;4.722;2023-04-07T00:52:41;9.60;99.90
14555;DHT22;7364;50.870;4.722;2023-04-07T00:55:09;9.50;99.90
14555;DHT22;7364;50.870;4.722;2023-04-07T00:57:37;9.30;99.90
14555;DHT22;7364;50.870;4.722;2023-04-07T01:00:06;9.30;99.90
14555;DHT22;7364;50.870;4.722;2023-04-07T01:02:37;9.20;99.90
14555;DHT22;7364;50.870;4.722;2023-04-07T01:05:15;9.20;99.90
14555;DHT22;7364;50.870;4.722;2023-04-07T01:07:53;9.30;99.90
14555;DHT22;7364;50.870;4.722;2023-04-07T01:10:27;9.40;99.90
14555;DHT22;7364;50.870;4.722;2023-04-07T01:13:02;9.30;99.90
14555;DHT22;7364;50.870;4.722;2023-04-07T01:15:33;9.30;99.90
14555;DHT22;7364;50.870;4.722;2023-04-07T01:18:07;9.20;99.90
14555;DHT22;7364;50.870;4.722;2023-04-07T01:20:38;9.30;99.90
14555;DHT22;7364;50.870;4.722;2023-04-07T01:23:07;9.40;99.90
14555;DHT22;7364;50.870;4.722;2023-04-07T01:26:04;9.50;99.90
14555;DHT22;7364;50.870;4.722;2023-04-07T01:28:52;9.50;99.90
14555;DHT22;7364;50.870;4.722;2023-04-07T01:31:22;9.70;99.90
14555;DHT22;7364;50.870;4.722;2023-04-07T01:33:53;9.70;99.90
14555;DHT22;7364;50.870;4.722;2023-04-07T01:36:21;9.80;99.90
14555;DHT22;7364;50.870;4.722;2023-04-07T01:38:50;9.60;99.90
14555;DHT22;7364;50.870;4.722;2023-04-07T01:41:18;9.60;99.90
14555;DHT22;7364;50.870;4.722;2023-04-07T01:43:46;9.50;99.90
14555;DHT22;7364;50.870;4.722;2023-04-07T01:46:14;9.50;99.90
14555;DHT22;7364;50.870;4.722;2023-04-07T01:48:43;9.40;99.90
14555;DHT22;7364;50.870;4.722;2023-04-07T01:51:12;9.40;99.90
14555;DHT22;7364;50.870;4.722;2023-04-07T01:53:42;9.30;99.90
14555;DHT22;7364;50.870;4.722;2023-04-07T01:56:10;9.20;99.90
14555;DHT22;7364;50.870;4.722;2023-04-07T01:58:38;9.10;99.90
14555;DHT22;7364;50.870;4.722;2023-04-07T02:01:05;9.00;99.90
14555;DHT22;7364;50.870;4.722;2023-04-07T02:03:38;9.00;99.90
14555;DHT22;7364;50.870;4.722;2023-04-07T02:06:09;9.00;99.90
14555;DHT22;7364;50.870;4.722;2023-04-07T02:08:43;8.90;99.90
14555;DHT22;7364;50.870;4.722;2023-04-07T02:11:12;8.90;99.90
14555;DHT22;7364;50.870;4.722;2023-04-07T02:13:41;8.80;99.90
14555;DHT22;7364;50.870;4.722;2023-04-07T02:16:10;8.80;99.90
14555;DHT22;7364;50.870;4.722;2023-04-07T02:18:43;8.80;99.90
14555;DHT22;7364;50.870;4.722;2023-04-07T02:21:14;8.80;99.90
14555;DHT22;7364;50.870;4.722;2023-04-07T02:23:42;8.80;99.90
14555;DHT22;7364;50.870;4.722;2023-04-07T02:26:09;8.80;99.90
14555;DHT22;7364;50.870;4.722;2023-04-07T02:28:36;8.80;99.90
14555;DHT22;7364;50.870;4.722;2023-04-07T02:31:04;8.80;99.90
14555;DHT22;7364;50.870;4.722;2023-04-07T02:33:31;8.80;99.90
14555;DHT22;7364;50.870;4.722;2023-04-07T02:35:58;8.70;99.90
14555;DHT22;7364;50.870;4.722;2023-04-07T02:38:27;8.70;99.90
14555;DHT22;7364;50.870;4.722;2023-04-07T02:40:54;8.70;99.90
14555;DHT22;7364;50.870;4.722;2023-04-07T02:43:22;8.60;99.90
14555;DHT22;7364;50.870;4.722;2023-04-07T02:45:50;8.60;99.90
14555;DHT22;7364;50.870;4.722;2023-04-07T02:48:17;8.50;99.90
14555;DHT22;7364;50.870;4.722;2023-04-07T02:50:44;8.50;99.90
14555;DHT22;7364;50.870;4.722;2023-04-07T02:53:12;8.50;99.90
14555;DHT22;7364;50.870;4.722;2023-04-07T02:55:41;8.50;99.90
14555;DHT22;7364;50.870;4.722;2023-04-07T02:58:08;8.50;99.90
14555;DHT22;7364;50.870;4.722;2023-04-07T03:00:36;8.60;99.90
14555;DHT22;7364;50.870;4.722;2023-04-07T03:03:03;8.60;99.90
14555;DHT22;7364;50.870;4.722;2023-04-07T03:05:31;8.50;99.90
14555;DHT22;7364;50.870;4.722;2023-04-07T03:07:58;8.50;99.90
14555;DHT22;7364;50.870;4.722;2023-04-07T03:10:26;8.50;99.90
14555;DHT22;7364;50.870;4.722;2023-04-07T03:12:54;8.40;99.90
14555;DHT22;7364;50.870;4.722;2023-04-07T03:15:22;8.50;99.90
14555;DHT22;7364;50.870;4.722;2023-04-07T03:17:49;8.50;99.90
14555;DHT22;7364;50.870;4.722;2023-04-07T03:20:16;8.40;99.90
14555;DHT22;7364;50.870;4.722;2023-04-07T03:22:44;8.30;99.90
14555;DHT22;7364;50.870;4.722;2023-04-07T03:25:12;8.40;99.90
14555;DHT22;7364;50.870;4.722;2023-04-07T03:27:39;8.40;99.90
14555;DHT22;7364;50.870;4.722;2023-04-07T03:30:10;8.50;99.90
14555;DHT22;7364;50.870;4.722;2023-04-07T03:32:38;8.40;99.90
14555;DHT22;7364;50.870;4.722;2023-04-07T03:35:05;8.40;99.90
14555;DHT22;7364;50.870;4.722;2023-04-07T03:37:33;8.30;99.90
14555;DHT22;7364;50.870;4.722;2023-04-07T03:40:00;8.40;99.90
14555;DHT22;7364;50.870;4.722;2023-04-07T03:42:28;8.40;99.90
14555;DHT22;7364;50.870;4.722;2023-04-07T03:44:55;8.40;99.90
14555;DHT22;7364;50.870;4.722;2023-04-07T03:47:24;8.40;99.90
14555;DHT22;7364;50.870;4.722;2023-04-07T03:49:51;8.40;99.90
14555;DHT22;7364;50.870;4.722;2023-04-07T03:52:18;8.40;99.90
14555;DHT22;7364;50.870;4.722;2023-04-07T03:54:46;8.40;99.90
14555;DHT22;7364;50.870;4.722;2023-04-07T03:57:13;8.40;99.90
14555;DHT22;7364;50.870;4.722;2023-04-07T03:59:41;8.40;99.90
14555;DHT22;7364;50.870;4.722;2023-04-07T04:02:08;8.40;99.90
14555;DHT22;7364;50.870;4.722;2023-04-07T04:04:37;8.50;99.90
14555;DHT22;7364;50.870;4.722;2023-04-07T04:07:05;8.50;99.90
14555;DHT22;7364;50.870;4.722;2023-04-07T04:09:32;8.50;99.90
14555;DHT22;7364;50.870;4.722;2023-04-07T04:11:59;8.50;99.90
14555;DHT22;7364;50.870;4.722;2023-04-07T04:14:27;8.50;99.90
14555;DHT22;7364;50.870;4.722;2023-04-07T04:16:54;8.50;99.90
14555;DHT22;7364;50.870;4.722;2023-04-07T04:19:21;8.50;99.90
14555;DHT22;7364;50.870;4.722;2023-04-07T04:21:50;8.50;99.90
14555;DHT22;7364;50.870;4.722;2023-04-07T04:24:17;8.50;99.90
14555;DHT22;7364;50.870;4.722;2023-04-07T04:26:45;8.60;99.90
14555;DHT22;7364;50.870;4.722;2023-04-07T04:29:15;8.60;99.90
14555;DHT22;7364;50.870;4.722;2023-04-07T04:31:42;8.60;99.90
14555;DHT22;7364;50.870;4.722;2023-04-07T04:34:09;8.60;99.90
14555;DHT22;7364;50.870;4.722;2023-04-07T04:36:36;8.50;99.90
14555;DHT22;7364;50.870;4.722;2023-04-07T04:39:06;8.50;99.90
14555;DHT22;7364;50.870;4.722;2023-04-07T04:41:34;8.50;99.90
14555;DHT22;7364;50.870;4.722;2023-04-07T04:44:01;8.50;99.90
14555;DHT22;7364;50.870;4.722;2023-04-07T04:46:28;8.50;99.90
14555;DHT22;7364;50.870;4.722;2023-04-07T04:48:56;8.60;99.90
14555;DHT22;7364;50.870;4.722;2023-04-07T04:51:24;8.50;99.90
14555;DHT22;7364;50.870;4.722;2023-04-07T04:53:52;8.50;99.90
14555;DHT22;7364;50.870;4.722;2023-04-07T04:56:21;8.50;99.90
14555;DHT22;7364;50.870;4.722;2023-04-07T04:58:49;8.50;99.90
14555;DHT22;7364;50.870;4.722;2023-04-07T05:01:16;8.50;99.90
14555;DHT22;7364;50.870;4.722;2023-04-07T05:03:43;8.50;99.90
14555;DHT22;7364;50.870;4.722;2023-04-07T05:06:11;8.70;99.90
14555;DHT22;7364;50.870;4.722;2023-04-07T05:08:39;8.70;99.90
14555;DHT22;7364;50.870;4.722;2023-04-07T05:11:06;8.70;99.90
14555;DHT22;7364;50.870;4.722;2023-04-07T05:13:35;8.60;99.90
14555;DHT22;7364;50.870;4.722;2023-04-07T05:16:02;8.60;99.90
14555;DHT22;7364;50.870;4.722;2023-04-07T05:18:30;8.80;99.90
14555;DHT22;7364;50.870;4.722;2023-04-07T05:20:57;8.70;99.90
14555;DHT22;7364;50.870;4.722;2023-04-07T05:23:26;8.60;99.90
14555;DHT22;7364;50.870;4.722;2023-04-07T05:25:54;8.70;99.90
14555;DHT22;7364;50.870;4.722;2023-04-07T05:28:21;8.70;99.90
14555;DHT22;7364;50.870;4.722;2023-04-07T05:30:51;8.70;99.90
14555;DHT22;7364;50.870;4.722;2023-04-07T05:33:19;8.70;99.90
14555;DHT22;7364;50.870;4.722;2023-04-07T05:35:47;8.80;99.90
14555;DHT22;7364;50.870;4.722;2023-04-07T05:38:15;8.80;99.90
14555;DHT22;7364;50.870;4.722;2023-04-07T05:40:43;8.90;99.90
14555;DHT22;7364;50.870;4.722;2023-04-07T05:43:10;8.70;99.90
14555;DHT22;7364;50.870;4.722;2023-04-07T05:45:38;8.70;99.90
14555;DHT22;7364;50.870;4.722;2023-04-07T05:48:07;8.70;99.90
14555;DHT22;7364;50.870;4.722;2023-04-07T05:50:35;8.50;99.90
14555;DHT22;7364;50.870;4.722;2023-04-07T05:53:02;8.50;99.90
14555;DHT22;7364;50.870;4.722;2023-04-07T05:55:34;8.60;99.90
14555;DHT22;7364;50.870;4.722;2023-04-07T05:58:02;8.60;99.90
14555;DHT22;7364;50.870;4.722;2023-04-07T06:00:29;8.60;99.90
14555;DHT22;7364;50.870;4.722;2023-04-07T06:02:56;8.70;99.90
14555;DHT22;7364;50.870;4.722;2023-04-07T06:05:25;8.50;99.90
14555;DHT22;7364;50.870;4.722;2023-04-07T06:07:53;8.50;99.90
14555;DHT22;7364;50.870;4.722;2023-04-07T06:10:24;8.50;99.90
14555;DHT22;7364;50.870;4.722;2023-04-07T06:12:51;8.60;99.90
14555;DHT22;7364;50.870;4.722;2023-04-07T06:15:18;8.70;99.90
14555;DHT22;7364;50.870;4.722;2023-04-07T06:17:46;8.70;99.90
14555;DHT22;7364;50.870;4.722;2023-04-07T06:20:13;8.60;99.90
14555;DHT22;7364;50.870;4.722;2023-04-07T06:22:42;8.70;99.90
14555;DHT22;7364;50.870;4.722;2023-04-07T06:25:12;8.80;99.90
14555;DHT22;7364;50.870;4.722;2023-04-07T06:27:39;8.70;99.90
14555;DHT22;7364;50.870;4.722;2023-04-07T06:30:08;8.80;99.90
14555;DHT22;7364;50.870;4.722;2023-04-07T06:32:36;8.90;99.90
14555;DHT22;7364;50.870;4.722;2023-04-07T06:35:05;8.90;99.90
14555;DHT22;7364;50.870;4.722;2023-04-07T06:37:32;8.90;99.90
14555;DHT22;7364;50.870;4.722;2023-04-07T06:40:01;9.10;99.90
14555;DHT22;7364;50.870;4.722;2023-04-07T06:42:28;9.20;99.90
14555;DHT22;7364;50.870;4.722;2023-04-07T06:44:57;9.30;99.90
14555;DHT22;7364;50.870;4.722;2023-04-07T06:47:24;9.30;99.90
14555;DHT22;7364;50.870;4.722;2023-04-07T06:49:53;9.50;99.90
14555;DHT22;7364;50.870;4.722;2023-04-07T06:52:20;9.50;99.90
14555;DHT22;7364;50.870;4.722;2023-04-07T06:54:48;9.50;99.90
14555;DHT22;7364;50.870;4.722;2023-04-07T06:57:17;9.50;99.90
14555;DHT22;7364;50.870;4.722;2023-04-07T06:59:45;9.80;99.90
14555;DHT22;7364;50.870;4.722;2023-04-07T07:02:12;9.80;99.90
14555;DHT22;7364;50.870;4.722;2023-04-07T07:04:40;9.70;99.90
14555;DHT22;7364;50.870;4.722;2023-04-07T07:07:08;9.90;99.90
14555;DHT22;7364;50.870;4.722;2023-04-07T07:09:35;9.90;99.90
14555;DHT22;7364;50.870;4.722;2023-04-07T07:12:03;9.80;99.90
14555;DHT22;7364;50.870;4.722;2023-04-07T07:14:32;9.60;99.90
14555;DHT22;7364;50.870;4.722;2023-04-07T07:17:01;9.60;99.90
14555;DHT22;7364;50.870;4.722;2023-04-07T07:19:29;9.70;99.90
14555;DHT22;7364;50.870;4.722;2023-04-07T07:21:56;9.80;99.90
14555;DHT22;7364;50.870;4.722;2023-04-07T07:24:24;9.90;99.90
14555;DHT22;7364;50.870;4.722;2023-04-07T07:26:54;10.00;99.90
14555;DHT22;7364;50.870;4.722;2023-04-07T07:29:22;10.00;99.90
14555;DHT22;7364;50.870;4.722;2023-04-07T07:31:51;10.00;99.90
14555;DHT22;7364;50.870;4.722;2023-04-07T07:34:19;10.10;99.90
14555;DHT22;7364;50.870;4.722;2023-04-07T07:36:48;10.30;99.90
14555;DHT22;7364;50.870;4.722;2023-04-07T07:39:17;10.70;99.90
14555;DHT22;7364;50.870;4.722;2023-04-07T07:41:45;10.80;99.90
14555;DHT22;7364;50.870;4.722;2023-04-07T07:44:13;11.00;99.90
14555;DHT22;7364;50.870;4.722;2023-04-07T07:46:41;11.10;99.90
14555;DHT22;7364;50.870;4.722;2023-04-07T07:49:10;11.00;99.90
14555;DHT22;7364;50.870;4.722;2023-04-07T07:51:38;10.80;99.90
14555;DHT22;7364;50.870;4.722;2023-04-07T07:54:06;10.60;99.90
14555;DHT22;7364;50.870;4.722;2023-04-07T07:56:41;10.80;99.90
14555;DHT22;7364;50.870;4.722;2023-04-07T07:59:09;11.00;99.90
14555;DHT22;7364;50.870;4.722;2023-04-07T08:01:36;11.00;99.90
14555;DHT22;7364;50.870;4.722;2023-04-07T08:04:04;11.00;99.90
14555;DHT22;7364;50.870;4.722;2023-04-07T08:06:33;11.00;99.90
14555;DHT22;7364;50.870;4.722;2023-04-07T08:09:01;10.80;99.90
14555;DHT22;7364;50.870;4.722;2023-04-07T08:11:29;10.60;99.90
14555;DHT22;7364;50.870;4.722;2023-04-07T08:13:57;10.50;99.90
14555;DHT22;7364;50.870;4.722;2023-04-07T08:16:24;10.60;99.90
14555;DHT22;7364;50.870;4.722;2023-04-07T08:18:52;10.70;99.90
14555;DHT22;7364;50.870;4.722;2023-04-07T08:21:20;10.60;99.90
14555;DHT22;7364;50.870;4.722;2023-04-07T08:23:52;10.80;99.90
14555;DHT22;7364;50.870;4.722;2023-04-07T08:26:20;10.90;99.90
14555;DHT22;7364;50.870;4.722;2023-04-07T08:28:49;10.70;99.90
14555;DHT22;7364;50.870;4.722;2023-04-07T08:31:17;10.60;99.90
14555;DHT22;7364;50.870;4.722;2023-04-07T08:33:46;10.60;99.90
14555;DHT22;7364;50.870;4.722;2023-04-07T08:36:18;10.50;99.90
14555;DHT22;7364;50.870;4.722;2023-04-07T08:38:46;10.30;99.90
14555;DHT22;7364;50.870;4.722;2023-04-07T08:41:19;10.30;99.90
14555;DHT22;7364;50.870;4.722;2023-04-07T08:43:48;10.20;99.90
14555;DHT22;7364;50.870;4.722;2023-04-07T08:46:20;10.30;99.90
14555;DHT22;7364;50.870;4.722;2023-04-07T08:48:50;10.50;99.90
14555;DHT22;7364;50.870;4.722;2023-04-07T08:51:26;10.40;99.90
14555;DHT22;7364;50.870;4.722;2023-04-07T08:53:59;10.30;99.90
14555;DHT22;7364;50.870;4.722;2023-04-07T08:56:29;10.30;99.90
14555;DHT22;7364;50.870;4.722;2023-04-07T08:58:59;10.30;99.90
14555;DHT22;7364;50.870;4.722;2023-04-07T09:01:28;10.40;99.90
14555;DHT22;7364;50.870;4.722;2023-04-07T09:03:57;10.40;99.90
14555;DHT22;7364;50.870;4.722;2023-04-07T09:06:25;10.40;99.90
14555;DHT22;7364;50.870;4.722;2023-04-07T09:08:54;10.40;99.90
14555;DHT22;7364;50.870;4.722;2023-04-07T09:11:22;10.60;99.90
14555;DHT22;7364;50.870;4.722;2023-04-07T09:13:52;10.80;99.90
14555;DHT22;7364;50.870;4.722;2023-04-07T09:16:21;10.80;99.90
14555;DHT22;7364;50.870;4.722;2023-04-07T09:18:52;10.80;99.90
14555;DHT22;7364;50.870;4.722;2023-04-07T09:21:19;10.80;99.90
14555;DHT22;7364;50.870;4.722;2023-04-07T09:23:47;10.90;99.90
14555;DHT22;7364;50.870;4.722;2023-04-07T09:26:20;11.00;99.90
14555;DHT22;7364;50.870;4.722;2023-04-07T09:28:54;11.10;99.90
14555;DHT22;7364;50.870;4.722;2023-04-07T09:31:22;11.10;99.90
14555;DHT22;7364;50.870;4.722;2023-04-07T09:33:51;11.20;99.90
14555;DHT22;7364;50.870;4.722;2023-04-07T09:36:24;11.30;99.90
14555;DHT22;7364;50.870;4.722;2023-04-07T09:38:56;11.50;99.90
14555;DHT22;7364;50.870;4.722;2023-04-07T09:41:35;11.70;99.90
14555;DHT22;7364;50.870;4.722;2023-04-07T09:44:04;11.50;99.90
14555;DHT22;7364;50.870;4.722;2023-04-07T09:46:31;11.30;99.90
14555;DHT22;7364;50.870;4.722;2023-04-07T09:49:02;11.10;99.90
14555;DHT22;7364;50.870;4.722;2023-04-07T09:51:31;11.10;99.90
14555;DHT22;7364;50.870;4.722;2023-04-07T09:53:59;11.20;99.90
14555;DHT22;7364;50.870;4.722;2023-04-07T09:56:29;11.30;99.90
14555;DHT22;7364;50.870;4.722;2023-04-07T09:58:57;11.60;99.90
14555;DHT22;7364;50.870;4.722;2023-04-07T10:01:27;11.80;99.90
14555;DHT22;7364;50.870;4.722;2023-04-07T10:03:55;12.40;99.90
14555;DHT22;7364;50.870;4.722;2023-04-07T10:06:23;12.70;99.90
14555;DHT22;7364;50.870;4.722;2023-04-07T10:08:52;12.40;99.90
14555;DHT22;7364;50.870;4.722;2023-04-07T10:11:20;12.40;99.90
14555;DHT22;7364;50.870;4.722;2023-04-07T10:13:49;12.60;99.90
14555;DHT22;7364;50.870;4.722;2023-04-07T10:16:19;12.80;99.90
14555;DHT22;7364;50.870;4.722;2023-04-07T10:18:51;12.90;99.90
14555;DHT22;7364;50.870;4.722;2023-04-07T10:21:22;13.20;99.90
14555;DHT22;7364;50.870;4.722;2023-04-07T10:23:58;13.00;99.90
14555;DHT22;7364;50.870;4.722;2023-04-07T10:26:29;12.40;99.90
14555;DHT22;7364;50.870;4.722;2023-04-07T10:29:03;12.20;99.90
14555;DHT22;7364;50.870;4.722;2023-04-07T10:31:33;12.10;99.90
14555;DHT22;7364;50.870;4.722;2023-04-07T10:34:03;12.00;99.90
14555;DHT22;7364;50.870;4.722;2023-04-07T10:36:31;12.00;99.90
14555;DHT22;7364;50.870;4.722;2023-04-07T10:39:18;12.00;99.90
14555;DHT22;7364;50.870;4.722;2023-04-07T10:41:46;11.90;99.90
14555;DHT22;7364;50.870;4.722;2023-04-07T10:44:44;11.90;99.90
14555;DHT22;7364;50.870;4.722;2023-04-07T10:47:13;12.00;99.90
14555;DHT22;7364;50.870;4.722;2023-04-07T10:50:13;12.00;99.90
14555;DHT22;7364;50.870;4.722;2023-04-07T10:52:42;12.00;99.90
14555;DHT22;7364;50.870;4.722;2023-04-07T10:55:29;12.10;99.90
14555;DHT22;7364;50.870;4.722;2023-04-07T10:58:22;12.30;99.90
14555;DHT22;7364;50.870;4.722;2023-04-07T11:01:15;12.70;99.90
14555;DHT22;7364;50.870;4.722;2023-04-07T11:03:54;12.70;99.90
14555;DHT22;7364;50.870;4.722;2023-04-07T11:06:23;12.70;99.90
14555;DHT22;7364;50.870;4.722;2023-04-07T11:08:52;12.40;99.90
14555;DHT22;7364;50.870;4.722;2023-04-07T11:11:40;12.40;99.90
14555;DHT22;7364;50.870;4.722;2023-04-07T11:14:07;12.20;99.90
14555;DHT22;7364;50.870;4.722;2023-04-07T11:16:40;12.00;99.90
14555;DHT22;7364;50.870;4.722;2023-04-07T11:19:08;11.90;99.90
14555;DHT22;7364;50.870;4.722;2023-04-07T11:21:38;11.90;99.90
14555;DHT22;7364;50.870;4.722;2023-04-07T11:24:05;12.10;99.90
14555;DHT22;7364;50.870;4.722;2023-04-07T11:26:40;12.10;99.90
14555;DHT22;7364;50.870;4.722;2023-04-07T11:29:08;12.30;99.90
14555;DHT22;7364;50.870;4.722;2023-04-07T11:31:38;12.40;99.90
14555;DHT22;7364;50.870;4.722;2023-04-07T11:34:06;12.50;99.90
14555;DHT22;7364;50.870;4.722;2023-04-07T11:36:38;12.60;99.90
14555;DHT22;7364;50.870;4.722;2023-04-07T11:39:18;12.80;99.90
14555;DHT22;7364;50.870;4.722;2023-04-07T11:41:48;12.70;99.90
14555;DHT22;7364;50.870;4.722;2023-04-07T11:44:16;12.60;99.90
14555;DHT22;7364;50.870;4.722;2023-04-07T11:46:52;12.60;99.90
14555;DHT22;7364;50.870;4.722;2023-04-07T11:49:21;12.70;99.90
14555;DHT22;7364;50.870;4.722;2023-04-07T11:51:59;12.70;99.90
14555;DHT22;7364;50.870;4.722;2023-04-07T11:54:27;12.90;99.90
14555;DHT22;7364;50.870;4.722;2023-04-07T11:56:54;12.90;99.90
14555;DHT22;7364;50.870;4.722;2023-04-07T11:59:23;12.70;99.90
14555;DHT22;7364;50.870;4.722;2023-04-07T12:01:51;12.60;99.90
14555;DHT22;7364;50.870;4.722;2023-04-07T12:04:19;12.30;99.90
14555;DHT22;7364;50.870;4.722;2023-04-07T12:06:48;12.30;99.90
14555;DHT22;7364;50.870;4.722;2023-04-07T12:09:31;12.30;99.90
14555;DHT22;7364;50.870;4.722;2023-04-07T12:12:02;12.30;99.90
14555;DHT22;7364;50.870;4.722;2023-04-07T12:14:30;12.40;99.90
14555;DHT22;7364;50.870;4.722;2023-04-07T12:16:58;12.50;99.90
14555;DHT22;7364;50.870;4.722;2023-04-07T12:19:29;12.60;99.90
14555;DHT22;7364;50.870;4.722;2023-04-07T12:21:59;12.80;99.90
14555;DHT22;7364;50.870;4.722;2023-04-07T12:24:29;12.90;99.90
14555;DHT22;7364;50.870;4.722;2023-04-07T12:26:57;12.60;99.90
14555;DHT22;7364;50.870;4.722;2023-04-07T12:29:25;12.40;99.90
14555;DHT22;7364;50.870;4.722;2023-04-07T12:31:52;12.30;99.90
14555;DHT22;7364;50.870;4.722;2023-04-07T12:34:21;12.20;99.90
14555;DHT22;7364;50.870;4.722;2023-04-07T12:36:49;12.10;99.90
14555;DHT22;7364;50.870;4.722;2023-04-07T12:39:21;12.10;99.90
14555;DHT22;7364;50.870;4.722;2023-04-07T12:41:50;12.10;99.90
14555;DHT22;7364;50.870;4.722;2023-04-07T12:44:18;12.10;99.90
14555;DHT22;7364;50.870;4.722;2023-04-07T12:46:46;12.00;99.90
14555;DHT22;7364;50.870;4.722;2023-04-07T12:49:13;12.00;99.90
14555;DHT22;7364;50.870;4.722;2023-04-07T12:51:41;12.20;99.90
14555;DHT22;7364;50.870;4.722;2023-04-07T12:54:08;12.20;99.90
14555;DHT22;7364;50.870;4.722;2023-04-07T12:56:36;12.20;99.90
14555;DHT22;7364;50.870;4.722;2023-04-07T12:59:06;12.30;99.90
14555;DHT22;7364;50.870;4.722;2023-04-07T13:01:34;12.40;99.90
14555;DHT22;7364;50.870;4.722;2023-04-07T13:04:02;12.40;99.90
14555;DHT22;7364;50.870;4.722;2023-04-07T13:06:30;12.40;99.90
14555;DHT22;7364;50.870;4.722;2023-04-07T13:08:58;12.40;99.90
14555;DHT22;7364;50.870;4.722;2023-04-07T13:11:26;12.50;99.90
14555;DHT22;7364;50.870;4.722;2023-04-07T13:13:53;12.40;99.90
14555;DHT22;7364;50.870;4.722;2023-04-07T13:16:22;12.40;99.90
14555;DHT22;7364;50.870;4.722;2023-04-07T13:18:49;12.50;99.90
14555;DHT22;7364;50.870;4.722;2023-04-07T13:21:17;12.60;99.90
14555;DHT22;7364;50.870;4.722;2023-04-07T13:23:44;12.80;99.90
14555;DHT22;7364;50.870;4.722;2023-04-07T13:26:13;13.00;99.90
14555;DHT22;7364;50.870;4.722;2023-04-07T13:28:40;13.30;99.90
14555;DHT22;7364;50.870;4.722;2023-04-07T13:31:11;13.50;99.90
14555;DHT22;7364;50.870;4.722;2023-04-07T13:33:42;13.50;99.90
14555;DHT22;7364;50.870;4.722;2023-04-07T13:36:09;13.30;99.90
14555;DHT22;7364;50.870;4.722;2023-04-07T13:38:37;13.40;99.90
14555;DHT22;7364;50.870;4.722;2023-04-07T13:41:04;13.40;99.90
14555;DHT22;7364;50.870;4.722;2023-04-07T13:43:32;13.60;99.90
14555;DHT22;7364;50.870;4.722;2023-04-07T13:45:59;13.40;99.90
14555;DHT22;7364;50.870;4.722;2023-04-07T13:48:27;13.10;99.90
14555;DHT22;7364;50.870;4.722;2023-04-07T13:50:55;12.80;99.90
14555;DHT22;7364;50.870;4.722;2023-04-07T13:53:23;12.70;99.90
14555;DHT22;7364;50.870;4.722;2023-04-07T13:55:50;12.50;99.90
14555;DHT22;7364;50.870;4.722;2023-04-07T13:58:18;12.30;99.90
14555;DHT22;7364;50.870;4.722;2023-04-07T14:00:45;12.30;99.90
14555;DHT22;7364;50.870;4.722;2023-04-07T14:03:14;12.10;99.90
14555;DHT22;7364;50.870;4.722;2023-04-07T14:05:42;12.10;99.90
14555;DHT22;7364;50.870;4.722;2023-04-07T14:08:11;12.10;99.90
14555;DHT22;7364;50.870;4.722;2023-04-07T14:10:39;12.10;99.90
14555;DHT22;7364;50.870;4.722;2023-04-07T14:13:09;12.10;99.90
14555;DHT22;7364;50.870;4.722;2023-04-07T14:15:37;12.10;99.90
14555;DHT22;7364;50.870;4.722;2023-04-07T14:18:05;12.10;99.90
14555;DHT22;7364;50.870;4.722;2023-04-07T14:20:33;12.10;99.90
14555;DHT22;7364;50.870;4.722;2023-04-07T14:23:00;12.10;99.90
14555;DHT22;7364;50.870;4.722;2023-04-07T14:25:29;12.20;99.90
14555;DHT22;7364;50.870;4.722;2023-04-07T14:27:57;12.30;99.90
14555;DHT22;7364;50.870;4.722;2023-04-07T14:30:25;12.30;99.90
14555;DHT22;7364;50.870;4.722;2023-04-07T14:32:53;12.30;99.90
14555;DHT22;7364;50.870;4.722;2023-04-07T14:35:20;12.40;99.90
14555;DHT22;7364;50.870;4.722;2023-04-07T14:37:48;12.40;99.90
14555;DHT22;7364;50.870;4.722;2023-04-07T14:40:17;12.40;99.90
14555;DHT22;7364;50.870;4.722;2023-04-07T14:42:46;12.40;99.90
14555;DHT22;7364;50.870;4.722;2023-04-07T14:45:14;12.50;99.90
14555;DHT22;7364;50.870;4.722;2023-04-07T14:47:41;12.30;99.90
14555;DHT22;7364;50.870;4.722;2023-04-07T14:50:09;12.20;99.90
14555;DHT22;7364;50.870;4.722;2023-04-07T14:52:37;12.20;99.90
14555;DHT22;7364;50.870;4.722;2023-04-07T14:55:05;12.10;99.90
14555;DHT22;7364;50.870;4.722;2023-04-07T14:57:33;12.00;99.90
14555;DHT22;7364;50.870;4.722;2023-04-07T15:00:02;12.00;99.90
14555;DHT22;7364;50.870;4.722;2023-04-07T15:02:32;12.00;99.90
14555;DHT22;7364;50.870;4.722;2023-04-07T15:04:59;12.00;99.90
14555;DHT22;7364;50.870;4.722;2023-04-07T15:07:28;12.10;99.90
14555;DHT22;7364;50.870;4.722;2023-04-07T15:09:56;12.20;99.90
14555;DHT22;7364;50.870;4.722;2023-04-07T15:12:24;12.40;99.90
14555;DHT22;7364;50.870;4.722;2023-04-07T15:14:52;12.40;99.90
14555;DHT22;7364;50.870;4.722;2023-04-07T15:17:21;12.30;99.90
14555;DHT22;7364;50.870;4.722;2023-04-07T15:19:49;12.30;99.90
14555;DHT22;7364;50.870;4.722;2023-04-07T15:22:16;12.20;99.90
14555;DHT22;7364;50.870;4.722;2023-04-07T15:24:44;12.30;99.90
14555;DHT22;7364;50.870;4.722;2023-04-07T15:27:12;12.40;99.90
14555;DHT22;7364;50.870;4.722;2023-04-07T15:29:40;12.90;99.90
14555;DHT22;7364;50.870;4.722;2023-04-07T15:32:08;14.40;99.90
14555;DHT22;7364;50.870;4.722;2023-04-07T15:34:36;15.80;99.90
14555;DHT22;7364;50.870;4.722;2023-04-07T15:37:04;16.70;99.90
14555;DHT22;7364;50.870;4.722;2023-04-07T15:39:31;17.30;99.90
14555;DHT22;7364;50.870;4.722;2023-04-07T15:41:59;18.00;99.90
14555;DHT22;7364;50.870;4.722;2023-04-07T15:44:27;17.70;99.70
14555;DHT22;7364;50.870;4.722;2023-04-07T15:46:58;17.00;99.90
14555;DHT22;7364;50.870;4.722;2023-04-07T15:49:27;15.80;99.90
14555;DHT22;7364;50.870;4.722;2023-04-07T15:51:56;15.30;99.90
14555;DHT22;7364;50.870;4.722;2023-04-07T15:54:24;15.00;99.90
14555;DHT22;7364;50.870;4.722;2023-04-07T15:56:52;15.10;99.90
14555;DHT22;7364;50.870;4.722;2023-04-07T15:59:19;14.90;99.90
14555;DHT22;7364;50.870;4.722;2023-04-07T16:01:47;14.40;99.90
14555;DHT22;7364;50.870;4.722;2023-04-07T16:04:15;14.00;99.90